Latest Weather Observations for Bunbury

IDW60801

Issued at 10:53 pm WST Wednesday 8 July 2020 (issued every 10 minutes, with the page automatically refreshed every 10 minutes)

About weather observations | Map of weather stations | Latest weather observations for WA | Other Formats
Station Details ID: 009965 Name: BUNBURY Lat: -33.36 Lon: 115.64 Height: 5.2 m
Data from the previous 72 hours. | See also: Recent months at Bunbury
Date/Time
WST
Temp
°C
App
Temp
°C
Dew
Point
°C
Rel
Hum
%
Delta-T
°C
Wind Press
QNH
hPa
Press
MSL
hPa
Rain since
9am
mm
Dir  Spd
km/h
Gust
km/h
Spd
kts
Gust
kts
08/10:30pm 7.6 6.1 6.9 95 0.3 S 4 4 2 2 1025.4 1025.4 0.0
08/10:00pm 7.9 7.2 7.0 94 0.4 CALM 0 0 0 0 1025.2 1025.2 0.0
08/09:30pm 9.2 8.8 8.3 94 0.4 CALM 0 2 0 1 1025.1 1025.1 0.0
08/09:00pm 9.9 8.9 8.8 93 0.5 SE 4 6 2 3 1024.9 1024.9 0.0
08/08:30pm 10.3 9.0 9.2 93 0.5 SE 6 7 3 4 1024.7 1024.7 0.0
08/08:00pm 10.9 9.6 9.8 93 0.6 SE 7 9 4 5 1024.5 1024.5 0.0
08/07:30pm 11.4 10.1 10.1 92 0.7 S 7 9 4 5 1024.5 1024.5 0.0
08/07:00pm 11.7 10.7 10.3 91 0.7 S 6 9 3 5 1024.5 1024.5 0.0
08/06:30pm 12.1 10.6 10.5 90 0.8 SSW 9 19 5 10 1024.3 1024.3 0.0
08/06:00pm 12.6 11.5 10.7 88 1.0 S 7 13 4 7 1024.1 1024.1 0.0
08/05:30pm 12.6 11.4 10.3 86 1.2 SSE 7 13 4 7 1023.9 1023.9 0.0
08/05:00pm 13.3 10.1 9.9 80 1.7 S 17 26 9 14 1023.7 1023.7 0.0
08/04:30pm 14.3 12.2 9.9 75 2.3 S 11 15 6 8 1023.5 1023.5 0.0
08/04:00pm 15.5 13.2 9.0 65 3.3 SW 11 19 6 10 1023.2 1023.2 0.0
08/03:30pm 15.6 12.7 8.1 61 3.8 SW 13 20 7 11 1023.0 1023.0 0.0
08/03:00pm 15.6 13.0 7.9 60 3.8 WSW 11 15 6 8 1022.9 1022.9 0.0
08/02:30pm 15.9 13.1 8.4 61 3.8 W 13 17 7 9 1022.9 1022.9 0.0
08/02:00pm 16.5 15.1 9.0 61 3.8 SW 6 11 3 6 1022.8 1022.8 0.0
08/01:30pm 16.4 14.4 8.6 60 4.0 S 9 17 5 9 1023.1 1023.1 0.0
08/01:00pm 16.2 13.7 8.4 60 3.9 SSW 11 22 6 12 1023.4 1023.4 0.0
08/12:30pm 16.1 13.2 8.3 60 4.0 S 13 20 7 11 1023.9 1023.9 0.0
08/12:00pm 15.6 12.9 8.8 64 3.5 S 13 19 7 10 1024.3 1024.3 0.0
08/11:30am 15.5 13.2 9.0 65 3.3 S 11 20 6 11 1024.6 1024.6 0.0
08/11:00am 14.6 12.8 9.6 72 2.6 S 9 17 5 9 1024.7 1024.7 0.0
08/10:30am 14.1 12.1 10.3 78 2.0 S 11 17 6 9 1024.9 1024.9 0.0
08/10:00am 13.5 14.0 11.6 88 1.0 CALM 0 2 0 1 1024.9 1024.9 0.0
08/09:30am 11.9 11.3 10.5 91 0.7 ENE 4 6 2 3 1024.7 1024.7 0.0
08/09:00am 10.4 9.9 9.5 94 0.4 E 2 4 1 2 1024.5 1024.5 4.0
08/08:30am 9.0 8.6 8.2 95 0.4 CALM 0 0 0 0 1024.1 1024.1 4.0
08/08:00am 7.4 6.6 6.5 94 0.4 CALM 0 0 0 0 1023.7 1023.7 4.0
08/07:30am 7.8 6.3 6.7 93 0.5 ENE 4 7 2 4 1023.3 1023.3 4.0
08/07:00am 7.5 5.9 6.4 93 0.5 E 4 7 2 4 1023.2 1023.2 3.6
08/06:30am 7.4 5.4 6.3 93 0.5 SE 6 9 3 5 1022.7 1022.7 3.6
08/06:00am 6.9 5.2 5.7 92 0.5 E 4 6 2 3 1022.3 1022.3 3.6
08/05:30am 7.3 6.4 5.9 91 0.6 CALM 0 2 0 1 1022.3 1022.3 3.6
08/05:00am 7.3 6.3 5.8 90 0.7 CALM 0 2 0 1 1022.2 1022.2 3.6
08/04:30am 7.8 6.9 5.9 88 0.9 CALM 0 0 0 0 1022.2 1022.2 3.6
08/04:00am 8.7 7.9 6.7 87 0.9 CALM 0 2 0 1 1022.3 1022.3 3.6
08/03:30am 9.0 6.9 6.8 86 1.0 SE 7 9 4 5 1022.3 1022.3 3.6
08/03:00am 9.8 8.8 7.2 84 1.2 S 2 7 1 4 1022.3 1022.3 3.6
08/02:30am 10.5 8.4 8.3 86 1.1 S 9 13 5 7 1022.2 1022.2 3.6
08/02:00am 7.9 6.9 5.5 85 1.1 CALM 0 0 0 0 1022.1 1022.1 3.6
08/01:30am 9.3 7.8 6.6 83 1.3 SSW 4 6 2 3 1022.0 1022.0 3.6
08/01:00am 8.4 6.2 5.5 82 1.3 SE 6 9 3 5 1022.0 1022.0 3.6
08/12:30am 8.9 6.9 4.5 74 1.9 ESE 4 6 2 3 1021.8 1021.8 3.6
08/12:00am 10.5 8.8 5.7 72 2.2 S 4 6 2 3 1021.8 1021.8 3.6
 
Date/Time
WST
Temp
°C
App
Temp
°C
Dew
Point
°C
Rel
Hum
%
Delta-T
°C
Wind Press
QNH
hPa
Press
MSL
hPa
Rain since
9am
mm
Dir  Spd
km/h
Gust
km/h
Spd
kts
Gust
kts
07/11:30pm 11.5 9.3 6.0 69 2.6 S 7 9 4 5 1021.9 1021.9 3.6
07/11:00pm 13.9 10.1 6.0 59 3.7 SW 15 22 8 12 1021.9 1021.9 3.6
07/10:30pm 13.8 9.6 5.7 58 3.8 SW 17 24 9 13 1021.8 1021.8 3.6
07/10:00pm 13.6 10.1 7.4 66 3.0 SW 15 22 8 12 1021.7 1021.7 3.6
07/09:30pm 12.7 11.0 9.7 82 1.5 SSW 9 13 5 7 1021.7 1021.7 3.6
07/09:00pm 13.2 11.9 11.1 87 1.1 SSW 9 15 5 8 1021.5 1021.5 3.6
07/08:30pm 13.4 12.5 11.3 87 1.1 SSW 7 11 4 6 1021.1 1021.1 3.6
07/08:00pm 13.4 11.9 11.8 90 0.9 SW 11 19 6 10 1021.0 1021.0 3.6
07/07:30pm 13.3 10.0 11.7 90 0.9 SW 20 33 11 18 1020.9 1020.9 3.4
07/07:00pm 14.1 11.0 12.1 88 1.1 WSW 20 33 11 18 1020.6 1020.6 3.2
07/06:30pm 14.8 11.1 10.2 74 2.4 WSW 20 32 11 17 1020.3 1020.3 1.4
07/06:00pm 16.3 12.4 8.8 61 3.8 WNW 19 28 10 15 1019.9 1019.9 1.2
07/05:30pm 15.7 12.8 9.8 68 3.1 WNW 15 24 8 13 1019.9 1019.9 1.2
07/05:00pm 15.6 12.9 10.2 70 2.8 WNW 15 26 8 14 1020.1 1020.1 1.2
07/04:30pm 15.9 13.3 10.7 71 2.8 WNW 15 24 8 13 1020.2 1020.2 1.2
07/04:00pm 15.2 13.4 11.0 76 2.2 W 11 19 6 10 1020.3 1020.3 1.2
07/03:30pm 15.8 12.9 11.0 73 2.6 WNW 17 26 9 14 1020.2 1020.2 1.2
07/03:00pm 15.2 11.8 10.6 74 2.4 WNW 19 30 10 16 1020.3 1020.3 1.2
07/02:30pm 15.9 13.0 9.8 67 3.2 WNW 15 22 8 12 1020.3 1020.3 1.2
07/02:00pm 16.3 12.8 8.8 61 3.8 W 17 22 9 12 1020.3 1020.3 1.2
07/01:30pm 16.8 13.5 9.7 63 3.7 W 17 24 9 13 1020.5 1020.5 1.2
07/01:00pm 16.2 13.5 10.5 69 3.0 W 15 20 8 11 1020.9 1020.9 1.0
07/12:30pm 15.2 13.1 11.2 77 2.1 WSW 13 20 7 11 1021.5 1021.5 1.0
07/12:00pm 14.3 12.5 10.9 80 1.8 WSW 11 19 6 10 1021.8 1021.8 1.0
07/11:30am 13.4 11.2 10.8 84 1.4 W 13 19 7 10 1022.4 1022.4 1.0
07/11:00am 13.9 11.6 10.5 80 1.8 W 13 22 7 12 1022.4 1022.4 0.6
07/10:30am 14.8 11.9 9.8 72 2.6 WSW 15 32 8 17 1022.2 1022.2 0.2
07/10:00am 14.3 13.6 11.3 82 1.6 WNW 6 7 3 4 1022.1 1022.1 0.2
07/09:30am 13.1 11.1 10.3 83 1.4 W 11 20 6 11 1022.3 1022.3 0.2
07/09:00am 14.1 12.7 9.5 74 2.3 W 7 17 4 9 1021.9 1021.9 4.4
07/08:30am 14.8 10.7 7.8 63 3.5 W 19 30 10 16 1021.5 1021.5 4.4
07/08:00am 14.6 11.4 8.3 66 3.1 W 15 28 8 15 1021.2 1021.2 4.4
07/07:30am 14.3 11.1 8.3 67 3.0 SW 15 22 8 12 1020.8 1020.8 4.4
07/07:00am 14.8 12.4 7.1 60 3.8 W 9 26 5 14 1020.5 1020.5 4.4
07/06:30am 14.8 10.6 7.4 61 3.6 W 19 30 10 16 1020.3 1020.3 4.4
07/06:00am 14.8 10.5 7.1 60 3.8 W 19 30 10 16 1020.1 1020.1 4.4
07/05:30am 14.7 10.7 8.2 65 3.3 WSW 19 33 10 18 1019.8 1019.8 4.4
07/05:00am 14.8 11.3 7.1 60 3.8 W 15 24 8 13 1019.6 1019.6 4.4
07/04:30am 14.9 11.5 7.7 62 3.6 W 15 26 8 14 1019.4 1019.4 4.4
07/04:00am 14.4 11.8 9.2 71 2.6 W 13 35 7 19 1019.4 1019.4 4.4
07/03:30am 14.0 10.7 9.4 74 2.4 WSW 17 28 9 15 1019.5 1019.5 4.4
07/03:00am 15.0 10.5 8.5 65 3.3 W 22 35 12 19 1019.3 1019.3 4.4
07/02:30am 14.9 11.1 9.7 71 2.7 W 20 33 11 18 1019.1 1019.1 4.4
07/02:00am 14.6 10.9 10.0 74 2.4 WSW 20 33 11 18 1019.0 1019.0 4.4
07/01:44am 14.1 8.9 10.3 78 2.0 W 28 48 15 26 1019.0 1019.0 4.4
07/01:30am 14.6 10.9 10.2 75 2.3 WSW 20 32 11 17 1018.7 1018.7 4.4
07/01:00am 15.1 10.2 10.1 72 2.6 W 26 43 14 23 1018.7 1018.7 4.4
07/12:31am 14.1 8.9 10.3 78 2.0 W 28 48 15 26 1018.7 1018.7 4.4
07/12:30am 14.1 8.5 10.1 77 2.1 W 30 48 16 26 1018.7 1018.7 4.4
07/12:27am 14.5 9.3 10.1 75 2.3 W 28 48 15 26 1018.8 1018.8 4.4
07/12:00am 15.0 9.5 10.4 74 2.4 W 30 48 16 26 1018.5 1018.5 4.4
 
Date/Time
WST
Temp
°C
App
Temp
°C
Dew
Point
°C
Rel
Hum
%
Delta-T
°C
Wind Press
QNH
hPa
Press
MSL
hPa
Rain since
9am
mm
Dir  Spd
km/h
Gust
km/h
Spd
kts
Gust
kts
06/11:52pm 15.1 9.8 9.9 71 2.7 W 28 48 15 26 1018.4 1018.4 4.4
06/11:30pm 15.3 10.1 10.1 71 2.7 W 28 46 15 25 1018.6 1018.6 4.4
06/11:00pm 14.8 10.2 11.2 79 1.9 W 26 39 14 21 1018.5 1018.5 4.4
06/10:30pm 15.3 10.6 10.7 74 2.4 W 26 44 14 24 1018.2 1018.2 4.4
06/10:15pm 15.3 9.8 10.5 73 2.5 W 30 48 16 26 1018.0 1018.0 4.4
06/10:00pm 14.7 9.7 11.1 79 1.9 WNW 28 41 15 22 1018.1 1018.1 4.4
06/09:30pm 15.1 9.8 11.1 77 2.1 W 30 50 16 27 1018.0 1018.0 4.4
06/09:00pm 14.5 9.7 11.7 83 1.5 WNW 28 48 15 26 1017.9 1017.9 4.4
06/08:33pm 15.4 10.4 11.0 75 2.3 W 28 54 15 29 1017.8 1017.8 4.2
06/08:30pm 15.6 10.9 10.6 72 2.6 W 26 43 14 23 1017.7 1017.7 4.2
06/08:00pm 15.1 9.5 10.3 73 2.5 WNW 30 43 16 23 1017.3 1017.3 4.2
06/07:30pm 15.1 9.4 9.9 71 2.7 WNW 30 52 16 28 1017.2 1017.2 4.0
06/07:01pm 15.3 10.0 9.9 70 2.8 WNW 28 48 15 26 1016.8 1016.8 4.0
06/07:00pm 15.4 10.5 10.0 70 2.8 WNW 26 48 14 26 1016.8 1016.8 4.0
06/06:45pm 15.6 9.9 9.7 68 3.1 WNW 30 48 16 26 1016.7 1016.7 4.0
06/06:30pm 15.8 11.2 9.5 66 3.3 WNW 24 35 13 19 1016.5 1016.5 4.0
06/06:15pm 16.1 10.0 8.3 60 4.0 WNW 30 48 16 26 1016.4 1016.4 4.0
06/06:00pm 16.0 10.0 8.5 61 3.8 WNW 30 44 16 24 1016.1 1016.0 4.0
06/05:30pm 15.9 10.7 10.4 70 2.9 W 28 48 15 26 1015.6 1015.5 4.0
06/05:06pm 16.1 11.1 10.8 71 2.8 W 28 46 15 25 1015.3 1015.2 4.0
06/05:00pm 16.2 10.4 9.4 64 3.5 WNW 30 43 16 23 1015.0 1014.9 4.0
06/04:31pm 16.6 10.6 8.8 60 4.0 WNW 30 48 16 26 1014.7 1014.6 4.0
06/04:30pm 16.6 10.3 8.8 60 4.0 WNW 32 48 17 26 1014.7 1014.6 4.0
06/04:00pm 16.7 11.0 11.0 69 3.1 WNW 32 52 17 28 1014.4 1014.3 4.0
06/03:35pm 16.4 11.2 11.6 73 2.6 W 30 48 16 26 1014.1 1014.0 4.0
06/03:30pm 16.4 10.6 11.6 73 2.6 W 33 50 18 27 1014.1 1014.0 4.0
06/03:07pm 15.7 11.2 12.6 82 1.7 WNW 28 46 15 25 1013.7 1013.7 4.0
06/03:00pm 15.2 11.1 12.7 85 1.4 WNW 26 39 14 21 1013.6 1013.6 4.0
06/02:30pm 16.7 11.4 11.4 71 2.9 WNW 30 54 16 29 1013.3 1013.3 2.8
06/02:22pm 16.7 12.0 12.0 74 2.6 WNW 28 54 15 29 1013.2 1013.2 2.8
06/02:00pm 15.8 12.5 12.7 82 1.7 WNW 22 33 12 18 1013.1 1013.1 2.8
06/01:44pm 16.1 11.4 12.1 77 2.2 WNW 28 46 15 25 1013.1 1013.1 2.8
06/01:30pm 15.3 11.0 12.1 81 1.7 WNW 26 46 14 25 1013.1 1013.1 2.8
06/01:00pm 17.1 13.2 13.2 78 2.2 NNW 26 39 14 21 1012.9 1012.9 2.4
06/12:30pm 16.8 12.3 12.5 76 2.4 NW 28 41 15 22 1013.2 1013.2 2.4
06/12:00pm 15.6 11.0 12.2 80 1.9 NW 28 39 15 21 1013.4 1013.4 2.4
06/11:30am 16.0 10.3 11.0 72 2.7 NW 32 54 17 29 1013.5 1013.5 2.2
06/11:24am 15.7 10.1 11.5 76 2.3 NW 32 54 17 29 1013.5 1013.5 2.2
06/11:00am 14.9 9.4 11.7 81 1.7 NNW 32 48 17 26 1013.7 1013.7 2.2
06/10:30am 15.8 10.8 10.8 72 2.7 NW 28 48 15 26 1013.6 1013.6 2.0
06/10:03am 14.0 9.1 11.3 84 1.4 NW 28 46 15 25 1014.1 1014.0 2.0
06/10:00am 13.5 8.0 10.7 83 1.5 NW 30 46 16 25 1014.0 1013.9 2.0
06/09:30am 15.7 9.8 9.1 65 3.4 NW 30 46 16 25 1013.4 1013.4 0.0
06/09:04am 16.8 11.8 11.1 69 3.1 NNW 28 52 15 28 1013.1 1013.1 0.0
06/09:00am 16.3 12.2 11.5 73 2.6 NNW 24 37 13 20 1013.0 1013.0 26.6
06/08:45am 15.8 10.6 10.3 70 2.9 NW 28 50 15 27 1013.1 1013.1 26.6
06/08:30am 15.3 9.9 10.9 75 2.3 NW 30 41 16 22 1013.1 1013.1 26.6
06/08:09am 16.8 11.4 9.5 62 3.8 NNW 28 46 15 25 1012.9 1012.9 26.2
06/08:00am 16.5 10.6 9.0 61 3.9 NNW 30 43 16 23 1012.8 1012.8 26.2
06/07:30am 15.9 10.7 10.2 69 3.0 NW 28 43 15 23 1012.6 1012.6 26.2
06/07:00am 16.2 11.7 10.1 67 3.2 NNW 24 41 13 22 1012.5 1012.5 26.0
06/06:30am 15.9 11.7 9.6 66 3.3 NW 22 35 12 19 1012.3 1012.3 26.0
06/06:00am 15.8 13.2 10.6 71 2.8 NW 15 24 8 13 1012.2 1012.2 26.0
06/05:30am 14.7 12.5 12.2 85 1.4 N 15 20 8 11 1012.1 1012.1 26.0
06/05:00am 15.0 12.7 10.6 75 2.3 NNW 13 22 7 12 1012.2 1012.2 25.6
06/04:30am 16.0 12.9 11.6 75 2.4 NNW 19 32 10 17 1012.2 1012.2 25.6
06/04:00am 15.5 13.0 11.1 75 2.3 NNW 15 24 8 13 1012.4 1012.4 25.6
06/03:30am 15.1 12.3 11.3 78 2.0 NNW 17 28 9 15 1012.3 1012.3 25.6
06/03:00am 14.4 11.7 13.0 91 0.8 N 19 30 10 16 1012.7 1012.7 25.6
06/02:30am 14.0 12.0 12.7 92 0.7 WNW 15 28 8 15 1012.8 1012.8 25.4
06/02:00am 14.2 11.9 12.9 92 0.7 N 17 26 9 14 1012.7 1012.7 24.6
06/01:30am 14.1 11.3 12.7 91 0.8 NNE 19 28 10 15 1012.4 1012.4 23.4
06/01:00am 14.0 11.2 12.7 92 0.7 NNE 19 30 10 16 1012.7 1012.7 23.4
06/12:30am 13.9 12.0 13.0 94 0.5 NNE 15 22 8 12 1012.6 1012.6 23.4
06/12:00am 14.0 12.5 13.1 94 0.5 NNE 13 20 7 11 1013.6 1013.6 21.8
 
Date/Time
WST
Temp
°C
App
Temp
°C
Dew
Point
°C
Rel
Hum
%
Delta-T
°C
Wind Press
QNH
hPa
Press
MSL
hPa
Rain since
9am
mm
Dir  Spd
km/h
Gust
km/h
Spd
kts
Gust
kts
05/11:30pm 14.2 13.4 12.9 92 0.7 NE 9 13 5 7 1013.8 1013.8 20.6
05/11:00pm 13.8 13.6 11.8 88 1.1 NE 4 7 2 4 1013.7 1013.7 20.4

Other formats

Comma delimited format used in spreadsheet applications
http://www.bom.gov.au/fwo/IDW60801/IDW60801.94604.axf

JavaScript Object Notation format (JSON) in row-major order
http://www.bom.gov.au/fwo/IDW60801/IDW60801.94604.json

Data quality

Most of these data are generated automatically and are frequently updated. Quality checks on data are not normally performed. It is possible for incorrect values to appear. Refer to information at About Latest Weather Observations and please check the disclaimer before using these data.